sensor_id;sensor_type;location;lat;lon;timestamp;temperature;humidity
28247;DHT22;66191;53.178;22.058;2023-04-01T00:01:06;9.80;99.90
28247;DHT22;66191;53.178;22.058;2023-04-01T00:03:37;9.80;99.90
28247;DHT22;66191;53.178;22.058;2023-04-01T00:06:09;9.80;99.90
28247;DHT22;66191;53.178;22.058;2023-04-01T00:08:40;9.90;99.90
28247;DHT22;66191;53.178;22.058;2023-04-01T00:11:13;9.90;99.90
28247;DHT22;66191;53.178;22.058;2023-04-01T00:13:47;9.90;99.90
28247;DHT22;66191;53.178;22.058;2023-04-01T00:16:22;9.90;99.90
28247;DHT22;66191;53.178;22.058;2023-04-01T00:18:53;9.90;99.90
28247;DHT22;66191;53.178;22.058;2023-04-01T00:21:24;9.90;99.90
28247;DHT22;66191;53.178;22.058;2023-04-01T00:23:55;9.90;99.90
28247;DHT22;66191;53.178;22.058;2023-04-01T00:26:27;9.90;99.90
28247;DHT22;66191;53.178;22.058;2023-04-01T00:28:58;9.90;99.90
28247;DHT22;66191;53.178;22.058;2023-04-01T00:31:32;9.90;99.90
28247;DHT22;66191;53.178;22.058;2023-04-01T00:34:03;9.90;99.90
28247;DHT22;66191;53.178;22.058;2023-04-01T00:36:34;9.90;99.90
28247;DHT22;66191;53.178;22.058;2023-04-01T00:39:05;9.90;99.90
28247;DHT22;66191;53.178;22.058;2023-04-01T00:41:36;9.90;99.90
28247;DHT22;66191;53.178;22.058;2023-04-01T00:44:17;9.90;99.90
28247;DHT22;66191;53.178;22.058;2023-04-01T00:46:52;9.90;99.90
28247;DHT22;66191;53.178;22.058;2023-04-01T00:49:23;9.90;99.90
28247;DHT22;66191;53.178;22.058;2023-04-01T00:51:55;9.80;99.90
28247;DHT22;66191;53.178;22.058;2023-04-01T00:54:30;9.80;99.90
28247;DHT22;66191;53.178;22.058;2023-04-01T00:57:02;9.90;99.90
28247;DHT22;66191;53.178;22.058;2023-04-01T00:59:34;9.90;99.90
28247;DHT22;66191;53.178;22.058;2023-04-01T01:02:11;9.80;99.90
28247;DHT22;66191;53.178;22.058;2023-04-01T01:04:42;9.80;99.90
28247;DHT22;66191;53.178;22.058;2023-04-01T01:07:17;9.80;99.90
28247;DHT22;66191;53.178;22.058;2023-04-01T01:09:53;9.80;99.90
28247;DHT22;66191;53.178;22.058;2023-04-01T01:12:30;9.80;99.90
28247;DHT22;66191;53.178;22.058;2023-04-01T01:15:06;9.80;99.90
28247;DHT22;66191;53.178;22.058;2023-04-01T01:17:44;9.80;99.90
28247;DHT22;66191;53.178;22.058;2023-04-01T01:20:22;9.80;99.90
28247;DHT22;66191;53.178;22.058;2023-04-01T01:23:09;9.80;99.90
28247;DHT22;66191;53.178;22.058;2023-04-01T01:25:47;9.80;99.90
28247;DHT22;66191;53.178;22.058;2023-04-01T01:28:27;9.80;99.90
28247;DHT22;66191;53.178;22.058;2023-04-01T01:31:02;9.80;99.90
28247;DHT22;66191;53.178;22.058;2023-04-01T01:33:42;9.80;99.90
28247;DHT22;66191;53.178;22.058;2023-04-01T01:36:22;9.80;99.90
28247;DHT22;66191;53.178;22.058;2023-04-01T01:39:01;9.80;99.90
28247;DHT22;66191;53.178;22.058;2023-04-01T01:41:34;9.80;99.90
28247;DHT22;66191;53.178;22.058;2023-04-01T01:44:10;9.80;99.90
28247;DHT22;66191;53.178;22.058;2023-04-01T01:46:41;9.80;99.90
28247;DHT22;66191;53.178;22.058;2023-04-01T01:49:15;9.80;99.90
28247;DHT22;66191;53.178;22.058;2023-04-01T01:51:49;9.80;99.90
28247;DHT22;66191;53.178;22.058;2023-04-01T01:54:20;9.80;99.90
28247;DHT22;66191;53.178;22.058;2023-04-01T01:56:55;9.80;99.90
28247;DHT22;66191;53.178;22.058;2023-04-01T01:59:33;9.80;99.90
28247;DHT22;66191;53.178;22.058;2023-04-01T02:02:05;9.80;99.90
28247;DHT22;66191;53.178;22.058;2023-04-01T02:04:38;9.80;99.90
28247;DHT22;66191;53.178;22.058;2023-04-01T02:07:17;9.80;99.90
28247;DHT22;66191;53.178;22.058;2023-04-01T02:09:52;9.80;99.90
28247;DHT22;66191;53.178;22.058;2023-04-01T02:12:24;9.80;99.90
28247;DHT22;66191;53.178;22.058;2023-04-01T02:14:57;9.80;99.90
28247;DHT22;66191;53.178;22.058;2023-04-01T02:17:31;9.80;99.90
28247;DHT22;66191;53.178;22.058;2023-04-01T02:20:04;9.80;99.90
28247;DHT22;66191;53.178;22.058;2023-04-01T02:22:42;9.80;99.90
28247;DHT22;66191;53.178;22.058;2023-04-01T02:25:15;9.80;99.90
28247;DHT22;66191;53.178;22.058;2023-04-01T02:27:47;9.90;99.90
28247;DHT22;66191;53.178;22.058;2023-04-01T02:30:19;9.90;99.90
28247;DHT22;66191;53.178;22.058;2023-04-01T02:32:49;9.90;99.90
28247;DHT22;66191;53.178;22.058;2023-04-01T02:35:22;9.80;99.90
28247;DHT22;66191;53.178;22.058;2023-04-01T02:37:56;9.90;99.90
28247;DHT22;66191;53.178;22.058;2023-04-01T02:40:27;9.80;99.90
28247;DHT22;66191;53.178;22.058;2023-04-01T02:42:57;9.80;99.90
28247;DHT22;66191;53.178;22.058;2023-04-01T02:45:30;9.80;99.90
28247;DHT22;66191;53.178;22.058;2023-04-01T02:48:01;9.80;99.90
28247;DHT22;66191;53.178;22.058;2023-04-01T02:50:33;9.90;99.90
28247;DHT22;66191;53.178;22.058;2023-04-01T02:53:07;9.90;99.90
28247;DHT22;66191;53.178;22.058;2023-04-01T02:55:42;9.90;99.90
28247;DHT22;66191;53.178;22.058;2023-04-01T02:58:12;9.90;99.90
28247;DHT22;66191;53.178;22.058;2023-04-01T03:00:44;9.90;99.90
28247;DHT22;66191;53.178;22.058;2023-04-01T03:03:17;9.90;99.90
28247;DHT22;66191;53.178;22.058;2023-04-01T03:05:48;9.90;99.90
28247;DHT22;66191;53.178;22.058;2023-04-01T03:08:22;9.90;99.90
28247;DHT22;66191;53.178;22.058;2023-04-01T03:10:53;9.90;99.90
28247;DHT22;66191;53.178;22.058;2023-04-01T03:13:26;10.00;99.90
28247;DHT22;66191;53.178;22.058;2023-04-01T03:15:59;9.90;99.90
28247;DHT22;66191;53.178;22.058;2023-04-01T03:18:30;10.00;99.90
28247;DHT22;66191;53.178;22.058;2023-04-01T03:21:12;10.00;99.90
28247;DHT22;66191;53.178;22.058;2023-04-01T03:23:45;10.00;99.90
28247;DHT22;66191;53.178;22.058;2023-04-01T03:26:16;10.00;99.90
28247;DHT22;66191;53.178;22.058;2023-04-01T03:28:49;10.00;99.90
28247;DHT22;66191;53.178;22.058;2023-04-01T03:31:20;10.00;99.90
28247;DHT22;66191;53.178;22.058;2023-04-01T03:33:55;10.00;99.90
28247;DHT22;66191;53.178;22.058;2023-04-01T03:36:27;10.00;99.90
28247;DHT22;66191;53.178;22.058;2023-04-01T03:39:01;10.00;99.90
28247;DHT22;66191;53.178;22.058;2023-04-01T03:41:44;10.00;99.90
28247;DHT22;66191;53.178;22.058;2023-04-01T03:44:16;10.00;99.90
28247;DHT22;66191;53.178;22.058;2023-04-01T03:46:52;10.00;99.90
28247;DHT22;66191;53.178;22.058;2023-04-01T03:49:28;10.00;99.90
28247;DHT22;66191;53.178;22.058;2023-04-01T03:52:00;10.10;99.90
28247;DHT22;66191;53.178;22.058;2023-04-01T03:54:35;10.00;99.90
28247;DHT22;66191;53.178;22.058;2023-04-01T03:57:12;10.10;99.90
28247;DHT22;66191;53.178;22.058;2023-04-01T03:59:56;10.00;99.90
28247;DHT22;66191;53.178;22.058;2023-04-01T04:02:27;10.00;99.90
28247;DHT22;66191;53.178;22.058;2023-04-01T04:04:59;10.10;99.90
28247;DHT22;66191;53.178;22.058;2023-04-01T04:07:31;10.10;99.90
28247;DHT22;66191;53.178;22.058;2023-04-01T04:10:10;10.10;99.90
28247;DHT22;66191;53.178;22.058;2023-04-01T04:12:43;10.10;99.90
28247;DHT22;66191;53.178;22.058;2023-04-01T04:15:18;10.00;99.90
28247;DHT22;66191;53.178;22.058;2023-04-01T04:17:50;10.10;99.90
28247;DHT22;66191;53.178;22.058;2023-04-01T04:20:21;10.10;99.90
28247;DHT22;66191;53.178;22.058;2023-04-01T04:22:54;10.00;99.90
28247;DHT22;66191;53.178;22.058;2023-04-01T04:25:28;10.00;99.90
28247;DHT22;66191;53.178;22.058;2023-04-01T04:30:39;10.00;99.90
28247;DHT22;66191;53.178;22.058;2023-04-01T04:33:10;10.00;99.90
28247;DHT22;66191;53.178;22.058;2023-04-01T04:35:41;10.00;99.90
28247;DHT22;66191;53.178;22.058;2023-04-01T04:38:12;10.00;99.90
28247;DHT22;66191;53.178;22.058;2023-04-01T04:40:47;10.00;99.90
28247;DHT22;66191;53.178;22.058;2023-04-01T04:43:18;10.00;99.90
28247;DHT22;66191;53.178;22.058;2023-04-01T04:45:50;10.10;99.90
28247;DHT22;66191;53.178;22.058;2023-04-01T04:48:21;10.10;99.90
28247;DHT22;66191;53.178;22.058;2023-04-01T04:50:52;10.10;99.90
28247;DHT22;66191;53.178;22.058;2023-04-01T04:53:24;10.10;99.90
28247;DHT22;66191;53.178;22.058;2023-04-01T04:55:57;10.10;99.90
28247;DHT22;66191;53.178;22.058;2023-04-01T04:58:44;10.10;99.90
28247;DHT22;66191;53.178;22.058;2023-04-01T05:01:21;10.10;99.90
28247;DHT22;66191;53.178;22.058;2023-04-01T05:03:53;10.20;99.90
28247;DHT22;66191;53.178;22.058;2023-04-01T05:06:23;10.10;99.90
28247;DHT22;66191;53.178;22.058;2023-04-01T05:08:57;10.20;99.90
28247;DHT22;66191;53.178;22.058;2023-04-01T05:11:31;10.20;99.90
28247;DHT22;66191;53.178;22.058;2023-04-01T05:14:03;10.20;99.90
28247;DHT22;66191;53.178;22.058;2023-04-01T05:16:35;10.30;99.90
28247;DHT22;66191;53.178;22.058;2023-04-01T05:19:09;10.30;99.90
28247;DHT22;66191;53.178;22.058;2023-04-01T05:21:43;10.30;99.90
28247;DHT22;66191;53.178;22.058;2023-04-01T05:24:16;10.30;99.90
28247;DHT22;66191;53.178;22.058;2023-04-01T05:26:50;10.30;99.90
28247;DHT22;66191;53.178;22.058;2023-04-01T05:29:24;10.40;99.90
28247;DHT22;66191;53.178;22.058;2023-04-01T05:32:02;10.40;99.90
28247;DHT22;66191;53.178;22.058;2023-04-01T05:34:33;10.40;99.90
28247;DHT22;66191;53.178;22.058;2023-04-01T05:37:04;10.40;99.90
28247;DHT22;66191;53.178;22.058;2023-04-01T05:39:35;10.40;99.90
28247;DHT22;66191;53.178;22.058;2023-04-01T05:42:10;10.50;99.90
28247;DHT22;66191;53.178;22.058;2023-04-01T05:44:41;10.50;99.90
28247;DHT22;66191;53.178;22.058;2023-04-01T05:47:31;10.50;99.90
28247;DHT22;66191;53.178;22.058;2023-04-01T05:50:02;10.60;99.90
28247;DHT22;66191;53.178;22.058;2023-04-01T05:52:33;10.60;99.90
28247;DHT22;66191;53.178;22.058;2023-04-01T05:55:05;10.60;99.90
28247;DHT22;66191;53.178;22.058;2023-04-01T05:57:38;10.60;99.90
28247;DHT22;66191;53.178;22.058;2023-04-01T06:00:10;10.60;99.90
28247;DHT22;66191;53.178;22.058;2023-04-01T06:02:41;10.70;99.90
28247;DHT22;66191;53.178;22.058;2023-04-01T06:05:15;10.70;99.90
28247;DHT22;66191;53.178;22.058;2023-04-01T06:07:49;10.70;99.90
28247;DHT22;66191;53.178;22.058;2023-04-01T06:10:21;10.70;99.90
28247;DHT22;66191;53.178;22.058;2023-04-01T06:12:59;10.80;99.90
28247;DHT22;66191;53.178;22.058;2023-04-01T06:15:38;10.80;99.90
28247;DHT22;66191;53.178;22.058;2023-04-01T06:18:19;10.90;99.90
28247;DHT22;66191;53.178;22.058;2023-04-01T06:20:57;10.90;99.90
28247;DHT22;66191;53.178;22.058;2023-04-01T06:23:36;10.90;99.90
28247;DHT22;66191;53.178;22.058;2023-04-01T06:26:12;10.90;99.90
28247;DHT22;66191;53.178;22.058;2023-04-01T06:28:50;10.90;99.90
28247;DHT22;66191;53.178;22.058;2023-04-01T06:31:32;10.90;99.90
28247;DHT22;66191;53.178;22.058;2023-04-01T06:34:14;10.90;99.90
28247;DHT22;66191;53.178;22.058;2023-04-01T06:36:56;11.00;99.90
28247;DHT22;66191;53.178;22.058;2023-04-01T06:39:44;11.00;99.90
28247;DHT22;66191;53.178;22.058;2023-04-01T06:42:21;11.00;99.90
28247;DHT22;66191;53.178;22.058;2023-04-01T06:45:02;11.00;99.90
28247;DHT22;66191;53.178;22.058;2023-04-01T06:47:57;11.00;99.90
28247;DHT22;66191;53.178;22.058;2023-04-01T06:50:52;11.00;99.90
28247;DHT22;66191;53.178;22.058;2023-04-01T06:53:46;11.00;99.90
28247;DHT22;66191;53.178;22.058;2023-04-01T06:56:53;10.90;99.90
28247;DHT22;66191;53.178;22.058;2023-04-01T06:59:30;10.80;99.90
28247;DHT22;66191;53.178;22.058;2023-04-01T07:02:11;10.70;99.90
28247;DHT22;66191;53.178;22.058;2023-04-01T07:04:46;10.70;99.90
28247;DHT22;66191;53.178;22.058;2023-04-01T07:07:24;10.70;99.90
28247;DHT22;66191;53.178;22.058;2023-04-01T07:10:02;10.70;99.90
28247;DHT22;66191;53.178;22.058;2023-04-01T07:12:56;10.70;99.90
28247;DHT22;66191;53.178;22.058;2023-04-01T07:15:50;10.70;99.90
28247;DHT22;66191;53.178;22.058;2023-04-01T07:18:32;10.70;99.90
28247;DHT22;66191;53.178;22.058;2023-04-01T07:21:14;10.70;99.90
28247;DHT22;66191;53.178;22.058;2023-04-01T07:23:49;10.70;99.90
28247;DHT22;66191;53.178;22.058;2023-04-01T07:26:54;10.70;99.90
28247;DHT22;66191;53.178;22.058;2023-04-01T07:29:30;10.70;99.90
28247;DHT22;66191;53.178;22.058;2023-04-01T07:32:08;10.70;99.90
28247;DHT22;66191;53.178;22.058;2023-04-01T07:34:50;10.70;99.90
28247;DHT22;66191;53.178;22.058;2023-04-01T07:37:30;10.70;99.90
28247;DHT22;66191;53.178;22.058;2023-04-01T07:40:12;10.80;99.90
28247;DHT22;66191;53.178;22.058;2023-04-01T07:42:51;10.80;99.90
28247;DHT22;66191;53.178;22.058;2023-04-01T07:45:27;10.80;99.90
28247;DHT22;66191;53.178;22.058;2023-04-01T07:48:08;10.80;99.90
28247;DHT22;66191;53.178;22.058;2023-04-01T07:50:55;10.80;99.90
28247;DHT22;66191;53.178;22.058;2023-04-01T07:53:33;10.80;99.90
28247;DHT22;66191;53.178;22.058;2023-04-01T07:56:07;10.80;99.90
28247;DHT22;66191;53.178;22.058;2023-04-01T07:58:46;10.80;99.90
28247;DHT22;66191;53.178;22.058;2023-04-01T08:01:40;10.90;99.90
28247;DHT22;66191;53.178;22.058;2023-04-01T08:04:22;10.90;99.90
28247;DHT22;66191;53.178;22.058;2023-04-01T08:06:58;10.80;99.90
28247;DHT22;66191;53.178;22.058;2023-04-01T08:09:33;10.90;99.90
28247;DHT22;66191;53.178;22.058;2023-04-01T08:12:29;10.90;99.90
28247;DHT22;66191;53.178;22.058;2023-04-01T08:15:22;10.90;99.90
28247;DHT22;66191;53.178;22.058;2023-04-01T08:18:06;10.90;99.90
28247;DHT22;66191;53.178;22.058;2023-04-01T08:20:46;10.90;99.90
28247;DHT22;66191;53.178;22.058;2023-04-01T08:23:26;10.90;99.90
28247;DHT22;66191;53.178;22.058;2023-04-01T08:26:00;10.90;99.90
28247;DHT22;66191;53.178;22.058;2023-04-01T08:28:39;11.00;99.90
28247;DHT22;66191;53.178;22.058;2023-04-01T08:31:14;11.00;99.90
28247;DHT22;66191;53.178;22.058;2023-04-01T08:33:50;11.00;99.90
28247;DHT22;66191;53.178;22.058;2023-04-01T08:36:24;11.00;99.90
28247;DHT22;66191;53.178;22.058;2023-04-01T08:39:16;11.00;99.90
28247;DHT22;66191;53.178;22.058;2023-04-01T08:45:02;11.10;99.90
28247;DHT22;66191;53.178;22.058;2023-04-01T08:47:38;11.20;99.90
28247;DHT22;66191;53.178;22.058;2023-04-01T08:53:31;11.30;99.90
28247;DHT22;66191;53.178;22.058;2023-04-01T08:56:13;11.30;99.90
28247;DHT22;66191;53.178;22.058;2023-04-01T08:58:58;11.20;99.90
28247;DHT22;66191;53.178;22.058;2023-04-01T09:01:44;11.30;99.90
28247;DHT22;66191;53.178;22.058;2023-04-01T09:04:43;11.30;99.90
28247;DHT22;66191;53.178;22.058;2023-04-01T09:07:22;11.20;99.90
28247;DHT22;66191;53.178;22.058;2023-04-01T09:13:02;11.20;99.90
28247;DHT22;66191;53.178;22.058;2023-04-01T09:18:34;11.10;99.90
28247;DHT22;66191;53.178;22.058;2023-04-01T09:21:19;11.10;99.90
28247;DHT22;66191;53.178;22.058;2023-04-01T09:26:59;11.00;99.90
28247;DHT22;66191;53.178;22.058;2023-04-01T09:35:26;11.00;99.90
28247;DHT22;66191;53.178;22.058;2023-04-01T09:38:05;11.00;99.90
28247;DHT22;66191;53.178;22.058;2023-04-01T09:40:55;11.00;99.90
28247;DHT22;66191;53.178;22.058;2023-04-01T09:43:56;11.00;99.90
28247;DHT22;66191;53.178;22.058;2023-04-01T09:46:35;10.90;99.90
28247;DHT22;66191;53.178;22.058;2023-04-01T09:52:13;10.80;99.90
28247;DHT22;66191;53.178;22.058;2023-04-01T09:54:51;10.80;99.90
28247;DHT22;66191;53.178;22.058;2023-04-01T09:57:36;10.80;99.90
28247;DHT22;66191;53.178;22.058;2023-04-01T10:00:21;10.80;99.90
28247;DHT22;66191;53.178;22.058;2023-04-01T10:14:40;10.70;99.90
28247;DHT22;66191;53.178;22.058;2023-04-01T10:17:21;10.70;99.90
28247;DHT22;66191;53.178;22.058;2023-04-01T10:22:51;10.60;99.90
28247;DHT22;66191;53.178;22.058;2023-04-01T10:31:52;10.70;99.90
28247;DHT22;66191;53.178;22.058;2023-04-01T10:37:30;10.60;99.90
28247;DHT22;66191;53.178;22.058;2023-04-01T10:46:21;10.50;99.90
28247;DHT22;66191;53.178;22.058;2023-04-01T10:49:14;10.50;99.90
28247;DHT22;66191;53.178;22.058;2023-04-01T10:52:01;10.60;99.90
28247;DHT22;66191;53.178;22.058;2023-04-01T10:55:00;10.60;99.90
28247;DHT22;66191;53.178;22.058;2023-04-01T10:58:19;10.60;99.90
28247;DHT22;66191;53.178;22.058;2023-04-01T11:08:03;10.50;99.90
28247;DHT22;66191;53.178;22.058;2023-04-01T11:16:22;10.40;99.90
28247;DHT22;66191;53.178;22.058;2023-04-01T11:22:01;10.30;99.90
28247;DHT22;66191;53.178;22.058;2023-04-01T11:25:00;10.30;99.90
28247;DHT22;66191;53.178;22.058;2023-04-01T11:27:48;10.20;99.90
28247;DHT22;66191;53.178;22.058;2023-04-01T11:30:24;10.30;99.90
28247;DHT22;66191;53.178;22.058;2023-04-01T11:33:02;10.20;99.90
28247;DHT22;66191;53.178;22.058;2023-04-01T11:35:41;10.20;99.90
28247;DHT22;66191;53.178;22.058;2023-04-01T11:41:35;10.20;99.90
28247;DHT22;66191;53.178;22.058;2023-04-01T11:44:31;10.30;99.90
28247;DHT22;66191;53.178;22.058;2023-04-01T11:47:15;10.30;99.90
28247;DHT22;66191;53.178;22.058;2023-04-01T11:49:57;10.40;99.90
28247;DHT22;66191;53.178;22.058;2023-04-01T11:52:42;10.40;99.90
28247;DHT22;66191;53.178;22.058;2023-04-01T11:55:22;10.40;99.90
28247;DHT22;66191;53.178;22.058;2023-04-01T11:58:07;10.40;99.90
28247;DHT22;66191;53.178;22.058;2023-04-01T12:00:51;10.40;99.90
28247;DHT22;66191;53.178;22.058;2023-04-01T12:06:22;10.30;99.90
28247;DHT22;66191;53.178;22.058;2023-04-01T12:09:00;10.40;99.90
28247;DHT22;66191;53.178;22.058;2023-04-01T12:11:34;10.40;99.90
28247;DHT22;66191;53.178;22.058;2023-04-01T12:14:13;10.40;99.90
28247;DHT22;66191;53.178;22.058;2023-04-01T12:16:52;10.30;99.90
28247;DHT22;66191;53.178;22.058;2023-04-01T12:19:27;10.30;99.90
28247;DHT22;66191;53.178;22.058;2023-04-01T12:22:06;10.30;99.90
28247;DHT22;66191;53.178;22.058;2023-04-01T12:24:45;10.30;99.90
28247;DHT22;66191;53.178;22.058;2023-04-01T12:27:31;10.30;99.90
28247;DHT22;66191;53.178;22.058;2023-04-01T12:30:18;10.30;99.90
28247;DHT22;66191;53.178;22.058;2023-04-01T12:33:01;10.30;99.90
28247;DHT22;66191;53.178;22.058;2023-04-01T12:35:37;10.30;99.90
28247;DHT22;66191;53.178;22.058;2023-04-01T12:38:18;10.30;99.90
28247;DHT22;66191;53.178;22.058;2023-04-01T12:41:03;10.30;99.90
28247;DHT22;66191;53.178;22.058;2023-04-01T12:43:51;10.30;99.90
28247;DHT22;66191;53.178;22.058;2023-04-01T12:46:29;10.40;99.90
28247;DHT22;66191;53.178;22.058;2023-04-01T12:49:10;10.30;99.90
28247;DHT22;66191;53.178;22.058;2023-04-01T12:52:03;10.30;99.90
28247;DHT22;66191;53.178;22.058;2023-04-01T12:57:24;10.20;99.90
28247;DHT22;66191;53.178;22.058;2023-04-01T13:00:11;10.20;99.90
28247;DHT22;66191;53.178;22.058;2023-04-01T13:02:49;10.20;99.90
28247;DHT22;66191;53.178;22.058;2023-04-01T13:05:32;10.20;99.90
28247;DHT22;66191;53.178;22.058;2023-04-01T13:08:14;10.20;99.90
28247;DHT22;66191;53.178;22.058;2023-04-01T13:10:51;10.20;99.90
28247;DHT22;66191;53.178;22.058;2023-04-01T13:13:31;10.10;99.90
28247;DHT22;66191;53.178;22.058;2023-04-01T13:16:06;10.10;99.90
28247;DHT22;66191;53.178;22.058;2023-04-01T13:18:43;10.00;99.90
28247;DHT22;66191;53.178;22.058;2023-04-01T13:21:28;9.90;99.90
28247;DHT22;66191;53.178;22.058;2023-04-01T13:24:10;9.90;99.90
28247;DHT22;66191;53.178;22.058;2023-04-01T13:27:01;9.80;99.90
28247;DHT22;66191;53.178;22.058;2023-04-01T13:29:34;9.70;99.90
28247;DHT22;66191;53.178;22.058;2023-04-01T13:32:10;9.70;99.90
28247;DHT22;66191;53.178;22.058;2023-04-01T13:34:51;9.60;99.90
28247;DHT22;66191;53.178;22.058;2023-04-01T13:37:27;9.60;99.90
28247;DHT22;66191;53.178;22.058;2023-04-01T13:42:53;9.60;99.90
28247;DHT22;66191;53.178;22.058;2023-04-01T13:45:29;9.60;99.90
28247;DHT22;66191;53.178;22.058;2023-04-01T13:54:02;9.40;99.90
28247;DHT22;66191;53.178;22.058;2023-04-01T13:56:37;9.40;99.90
28247;DHT22;66191;53.178;22.058;2023-04-01T14:02:05;9.40;99.90
28247;DHT22;66191;53.178;22.058;2023-04-01T14:04:56;9.40;99.90
28247;DHT22;66191;53.178;22.058;2023-04-01T14:07:38;9.40;99.90
28247;DHT22;66191;53.178;22.058;2023-04-01T14:10:21;9.40;99.90
28247;DHT22;66191;53.178;22.058;2023-04-01T14:12:57;9.40;99.90
28247;DHT22;66191;53.178;22.058;2023-04-01T14:15:36;9.40;99.90
28247;DHT22;66191;53.178;22.058;2023-04-01T14:18:15;9.40;99.90
28247;DHT22;66191;53.178;22.058;2023-04-01T14:20:51;9.40;99.90
28247;DHT22;66191;53.178;22.058;2023-04-01T14:23:36;9.30;99.90
28247;DHT22;66191;53.178;22.058;2023-04-01T14:29:18;9.20;99.90
28247;DHT22;66191;53.178;22.058;2023-04-01T14:31:55;9.20;99.90
28247;DHT22;66191;53.178;22.058;2023-04-01T14:34:35;9.20;99.90
28247;DHT22;66191;53.178;22.058;2023-04-01T14:37:15;9.20;99.90
28247;DHT22;66191;53.178;22.058;2023-04-01T14:39:55;9.10;99.90
28247;DHT22;66191;53.178;22.058;2023-04-01T14:48:21;9.10;99.90
28247;DHT22;66191;53.178;22.058;2023-04-01T14:50:54;9.10;99.90
28247;DHT22;66191;53.178;22.058;2023-04-01T14:53:29;9.10;99.90
28247;DHT22;66191;53.178;22.058;2023-04-01T14:56:01;9.10;99.90
28247;DHT22;66191;53.178;22.058;2023-04-01T14:58:41;9.10;99.90
28247;DHT22;66191;53.178;22.058;2023-04-01T15:01:23;9.00;99.90
28247;DHT22;66191;53.178;22.058;2023-04-01T15:04:06;9.00;99.90
28247;DHT22;66191;53.178;22.058;2023-04-01T15:06:53;8.90;99.90
28247;DHT22;66191;53.178;22.058;2023-04-01T15:09:34;8.90;99.90
28247;DHT22;66191;53.178;22.058;2023-04-01T15:12:13;8.90;99.90
28247;DHT22;66191;53.178;22.058;2023-04-01T15:14:54;8.90;99.90
28247;DHT22;66191;53.178;22.058;2023-04-01T15:17:37;8.90;99.90
28247;DHT22;66191;53.178;22.058;2023-04-01T15:23:26;8.80;99.90
28247;DHT22;66191;53.178;22.058;2023-04-01T15:28:55;8.80;99.90
28247;DHT22;66191;53.178;22.058;2023-04-01T15:31:34;8.80;99.90
28247;DHT22;66191;53.178;22.058;2023-04-01T15:37:04;8.70;99.90
28247;DHT22;66191;53.178;22.058;2023-04-01T15:39:43;8.70;99.90
28247;DHT22;66191;53.178;22.058;2023-04-01T15:42:19;8.70;99.90
28247;DHT22;66191;53.178;22.058;2023-04-01T15:44:56;8.70;99.90
28247;DHT22;66191;53.178;22.058;2023-04-01T15:47:34;8.70;99.90
28247;DHT22;66191;53.178;22.058;2023-04-01T15:50:22;8.70;99.90
28247;DHT22;66191;53.178;22.058;2023-04-01T15:53:01;8.60;99.90
28247;DHT22;66191;53.178;22.058;2023-04-01T15:55:38;8.60;99.90
28247;DHT22;66191;53.178;22.058;2023-04-01T16:01:24;8.60;99.90
28247;DHT22;66191;53.178;22.058;2023-04-01T16:04:16;8.60;99.90
28247;DHT22;66191;53.178;22.058;2023-04-01T16:06:52;8.60;99.90
28247;DHT22;66191;53.178;22.058;2023-04-01T16:12:19;8.60;99.90
28247;DHT22;66191;53.178;22.058;2023-04-01T16:15:04;8.50;99.90
28247;DHT22;66191;53.178;22.058;2023-04-01T16:20:35;8.50;99.90
28247;DHT22;66191;53.178;22.058;2023-04-01T16:23:14;8.60;99.90
28247;DHT22;66191;53.178;22.058;2023-04-01T16:25:49;8.50;99.90
28247;DHT22;66191;53.178;22.058;2023-04-01T16:28:27;8.50;99.90
28247;DHT22;66191;53.178;22.058;2023-04-01T16:31:06;8.50;99.90
28247;DHT22;66191;53.178;22.058;2023-04-01T16:33:49;8.50;99.90
28247;DHT22;66191;53.178;22.058;2023-04-01T16:36:22;8.50;99.90
28247;DHT22;66191;53.178;22.058;2023-04-01T16:41:49;8.40;99.90
28247;DHT22;66191;53.178;22.058;2023-04-01T16:44:25;8.40;99.90
28247;DHT22;66191;53.178;22.058;2023-04-01T16:46:57;8.40;99.90
28247;DHT22;66191;53.178;22.058;2023-04-01T16:49:32;8.40;99.90
28247;DHT22;66191;53.178;22.058;2023-04-01T16:52:16;8.40;99.90
28247;DHT22;66191;53.178;22.058;2023-04-01T16:54:50;8.40;99.90
28247;DHT22;66191;53.178;22.058;2023-04-01T16:57:23;8.40;99.90
28247;DHT22;66191;53.178;22.058;2023-04-01T17:00:10;8.40;99.90
28247;DHT22;66191;53.178;22.058;2023-04-01T17:02:58;8.40;99.90
28247;DHT22;66191;53.178;22.058;2023-04-01T17:08:22;8.40;99.90
28247;DHT22;66191;53.178;22.058;2023-04-01T17:10:56;8.40;99.90
28247;DHT22;66191;53.178;22.058;2023-04-01T17:13:37;8.40;99.90
28247;DHT22;66191;53.178;22.058;2023-04-01T17:19:03;8.30;99.90
28247;DHT22;66191;53.178;22.058;2023-04-01T17:21:43;8.20;99.90
28247;DHT22;66191;53.178;22.058;2023-04-01T17:24:27;8.20;99.90
28247;DHT22;66191;53.178;22.058;2023-04-01T17:27:01;8.10;99.90
28247;DHT22;66191;53.178;22.058;2023-04-01T17:29:36;8.00;99.90
28247;DHT22;66191;53.178;22.058;2023-04-01T17:32:11;8.10;99.90
28247;DHT22;66191;53.178;22.058;2023-04-01T17:34:57;8.00;99.90
28247;DHT22;66191;53.178;22.058;2023-04-01T17:37:37;8.00;99.90
28247;DHT22;66191;53.178;22.058;2023-04-01T17:40:16;8.00;99.90
28247;DHT22;66191;53.178;22.058;2023-04-01T17:42:52;8.00;99.90
28247;DHT22;66191;53.178;22.058;2023-04-01T17:45:30;7.90;99.90
28247;DHT22;66191;53.178;22.058;2023-04-01T17:48:08;7.80;99.90
28247;DHT22;66191;53.178;22.058;2023-04-01T17:50:59;7.80;99.90
28247;DHT22;66191;53.178;22.058;2023-04-01T17:53:36;7.80;99.90
28247;DHT22;66191;53.178;22.058;2023-04-01T17:56:17;7.80;99.90
28247;DHT22;66191;53.178;22.058;2023-04-01T17:58:55;7.80;99.90
28247;DHT22;66191;53.178;22.058;2023-04-01T18:01:36;7.80;99.90
28247;DHT22;66191;53.178;22.058;2023-04-01T18:04:15;7.70;99.90
28247;DHT22;66191;53.178;22.058;2023-04-01T18:07:11;7.70;99.90
28247;DHT22;66191;53.178;22.058;2023-04-01T18:09:50;7.70;99.90
28247;DHT22;66191;53.178;22.058;2023-04-01T18:12:25;7.70;99.90
28247;DHT22;66191;53.178;22.058;2023-04-01T18:15:08;7.60;99.90
28247;DHT22;66191;53.178;22.058;2023-04-01T18:17:48;7.60;99.90
28247;DHT22;66191;53.178;22.058;2023-04-01T18:20:25;7.60;99.90
28247;DHT22;66191;53.178;22.058;2023-04-01T18:23:03;7.60;99.90
28247;DHT22;66191;53.178;22.058;2023-04-01T18:25:35;7.60;99.90
28247;DHT22;66191;53.178;22.058;2023-04-01T18:31:04;7.50;99.90
28247;DHT22;66191;53.178;22.058;2023-04-01T18:33:46;7.50;99.90
28247;DHT22;66191;53.178;22.058;2023-04-01T18:36:19;7.50;99.90
28247;DHT22;66191;53.178;22.058;2023-04-01T18:38:57;7.50;99.90
28247;DHT22;66191;53.178;22.058;2023-04-01T18:41:30;7.50;99.90